sensor_id;sensor_type;location;lat;lon;timestamp;temperature;humidity
25250;DHT22;13201;51.148;13.738;2023-08-30T00:00:17;15.60;99.90
25250;DHT22;13201;51.148;13.738;2023-08-30T00:02:46;15.60;99.90
25250;DHT22;13201;51.148;13.738;2023-08-30T00:05:13;15.40;99.90
25250;DHT22;13201;51.148;13.738;2023-08-30T00:07:39;15.50;99.90
25250;DHT22;13201;51.148;13.738;2023-08-30T00:10:07;15.50;99.90
25250;DHT22;13201;51.148;13.738;2023-08-30T00:12:33;15.50;99.90
25250;DHT22;13201;51.148;13.738;2023-08-30T00:14:59;15.60;99.90
25250;DHT22;13201;51.148;13.738;2023-08-30T00:17:25;15.70;99.90
25250;DHT22;13201;51.148;13.738;2023-08-30T00:19:51;15.60;99.90
25250;DHT22;13201;51.148;13.738;2023-08-30T00:22:18;15.60;99.90
25250;DHT22;13201;51.148;13.738;2023-08-30T00:24:44;15.70;99.90
25250;DHT22;13201;51.148;13.738;2023-08-30T00:27:11;15.60;99.90
25250;DHT22;13201;51.148;13.738;2023-08-30T00:29:37;15.50;99.90
25250;DHT22;13201;51.148;13.738;2023-08-30T00:32:03;15.40;99.90
25250;DHT22;13201;51.148;13.738;2023-08-30T00:34:29;15.60;99.90
25250;DHT22;13201;51.148;13.738;2023-08-30T00:36:55;15.40;99.90
25250;DHT22;13201;51.148;13.738;2023-08-30T00:39:20;15.40;99.90
25250;DHT22;13201;51.148;13.738;2023-08-30T00:41:46;15.50;99.90
25250;DHT22;13201;51.148;13.738;2023-08-30T00:44:12;15.50;99.90
25250;DHT22;13201;51.148;13.738;2023-08-30T00:46:37;15.40;99.90
25250;DHT22;13201;51.148;13.738;2023-08-30T00:49:04;15.40;99.90
25250;DHT22;13201;51.148;13.738;2023-08-30T00:51:30;15.40;99.90
25250;DHT22;13201;51.148;13.738;2023-08-30T00:53:57;15.40;99.90
25250;DHT22;13201;51.148;13.738;2023-08-30T00:56:23;15.30;99.90
25250;DHT22;13201;51.148;13.738;2023-08-30T00:58:49;15.40;99.90
25250;DHT22;13201;51.148;13.738;2023-08-30T01:01:16;15.40;99.90
25250;DHT22;13201;51.148;13.738;2023-08-30T01:29:11;14.60;99.90
25250;DHT22;13201;51.148;13.738;2023-08-30T01:31:37;14.50;99.90
25250;DHT22;13201;51.148;13.738;2023-08-30T01:34:04;14.50;99.90
25250;DHT22;13201;51.148;13.738;2023-08-30T01:36:30;14.60;99.90
25250;DHT22;13201;51.148;13.738;2023-08-30T01:38:58;14.80;99.90
25250;DHT22;13201;51.148;13.738;2023-08-30T01:41:26;14.90;99.90
25250;DHT22;13201;51.148;13.738;2023-08-30T01:43:52;14.90;99.90
25250;DHT22;13201;51.148;13.738;2023-08-30T01:46:18;14.90;99.90
25250;DHT22;13201;51.148;13.738;2023-08-30T01:48:46;15.00;99.90
25250;DHT22;13201;51.148;13.738;2023-08-30T01:51:14;15.00;99.90
25250;DHT22;13201;51.148;13.738;2023-08-30T01:53:43;15.00;99.90
25250;DHT22;13201;51.148;13.738;2023-08-30T01:56:09;15.00;99.90
25250;DHT22;13201;51.148;13.738;2023-08-30T01:58:34;15.00;99.90
25250;DHT22;13201;51.148;13.738;2023-08-30T02:01:00;15.00;99.90
25250;DHT22;13201;51.148;13.738;2023-08-30T02:03:26;15.00;99.90
25250;DHT22;13201;51.148;13.738;2023-08-30T02:08:22;15.10;99.90
25250;DHT22;13201;51.148;13.738;2023-08-30T02:11:01;15.00;99.90
25250;DHT22;13201;51.148;13.738;2023-08-30T02:13:30;15.10;99.90
25250;DHT22;13201;51.148;13.738;2023-08-30T02:15:59;15.10;99.90
25250;DHT22;13201;51.148;13.738;2023-08-30T02:18:26;15.00;99.90
25250;DHT22;13201;51.148;13.738;2023-08-30T02:20:52;15.10;99.90
25250;DHT22;13201;51.148;13.738;2023-08-30T02:23:17;15.10;99.90
25250;DHT22;13201;51.148;13.738;2023-08-30T02:25:43;15.00;99.90
25250;DHT22;13201;51.148;13.738;2023-08-30T02:28:09;15.10;99.90
25250;DHT22;13201;51.148;13.738;2023-08-30T02:30:34;15.10;99.90
25250;DHT22;13201;51.148;13.738;2023-08-30T02:33:00;15.00;99.90
25250;DHT22;13201;51.148;13.738;2023-08-30T02:35:26;15.10;99.90
25250;DHT22;13201;51.148;13.738;2023-08-30T02:37:51;15.10;99.90
25250;DHT22;13201;51.148;13.738;2023-08-30T02:40:17;15.20;99.90
25250;DHT22;13201;51.148;13.738;2023-08-30T02:42:43;15.30;99.90
25250;DHT22;13201;51.148;13.738;2023-08-30T02:45:09;15.30;99.90
25250;DHT22;13201;51.148;13.738;2023-08-30T02:47:34;15.40;99.90
25250;DHT22;13201;51.148;13.738;2023-08-30T02:50:00;15.40;99.90
25250;DHT22;13201;51.148;13.738;2023-08-30T02:52:26;15.40;99.90
25250;DHT22;13201;51.148;13.738;2023-08-30T02:54:51;15.30;99.90
25250;DHT22;13201;51.148;13.738;2023-08-30T02:57:17;15.30;99.90
25250;DHT22;13201;51.148;13.738;2023-08-30T02:59:42;15.30;99.90
25250;DHT22;13201;51.148;13.738;2023-08-30T03:02:08;15.30;99.90
25250;DHT22;13201;51.148;13.738;2023-08-30T03:04:34;15.30;99.90
25250;DHT22;13201;51.148;13.738;2023-08-30T03:07:00;15.30;99.90
25250;DHT22;13201;51.148;13.738;2023-08-30T03:09:25;15.40;99.90
25250;DHT22;13201;51.148;13.738;2023-08-30T03:11:51;15.40;99.90
25250;DHT22;13201;51.148;13.738;2023-08-30T03:14:16;15.40;99.90
25250;DHT22;13201;51.148;13.738;2023-08-30T03:16:42;15.20;99.90
25250;DHT22;13201;51.148;13.738;2023-08-30T03:19:10;15.20;99.90
25250;DHT22;13201;51.148;13.738;2023-08-30T03:21:36;15.10;99.90
25250;DHT22;13201;51.148;13.738;2023-08-30T03:24:02;15.10;99.90
25250;DHT22;13201;51.148;13.738;2023-08-30T03:26:27;15.10;99.90
25250;DHT22;13201;51.148;13.738;2023-08-30T03:28:53;15.00;99.90
25250;DHT22;13201;51.148;13.738;2023-08-30T03:31:21;14.90;99.90
25250;DHT22;13201;51.148;13.738;2023-08-30T03:33:48;14.80;99.90
25250;DHT22;13201;51.148;13.738;2023-08-30T03:36:14;14.90;99.90
25250;DHT22;13201;51.148;13.738;2023-08-30T03:38:40;14.90;99.90
25250;DHT22;13201;51.148;13.738;2023-08-30T03:41:05;14.70;99.90
25250;DHT22;13201;51.148;13.738;2023-08-30T03:43:31;14.80;99.90
25250;DHT22;13201;51.148;13.738;2023-08-30T03:45:57;14.90;99.90
25250;DHT22;13201;51.148;13.738;2023-08-30T03:48:23;14.90;99.90
25250;DHT22;13201;51.148;13.738;2023-08-30T03:50:49;14.90;99.90
25250;DHT22;13201;51.148;13.738;2023-08-30T03:53:14;15.00;99.90
25250;DHT22;13201;51.148;13.738;2023-08-30T03:55:40;15.00;99.90
25250;DHT22;13201;51.148;13.738;2023-08-30T03:58:05;15.00;99.90
25250;DHT22;13201;51.148;13.738;2023-08-30T04:00:31;14.90;99.90
25250;DHT22;13201;51.148;13.738;2023-08-30T04:02:57;14.90;99.90
25250;DHT22;13201;51.148;13.738;2023-08-30T04:05:22;14.90;99.90
25250;DHT22;13201;51.148;13.738;2023-08-30T04:07:48;14.90;99.90
25250;DHT22;13201;51.148;13.738;2023-08-30T04:10:13;14.90;99.90
25250;DHT22;13201;51.148;13.738;2023-08-30T04:12:39;14.90;99.90
25250;DHT22;13201;51.148;13.738;2023-08-30T04:15:04;15.00;99.90
25250;DHT22;13201;51.148;13.738;2023-08-30T04:17:30;14.90;99.90
25250;DHT22;13201;51.148;13.738;2023-08-30T04:19:55;14.90;99.90
25250;DHT22;13201;51.148;13.738;2023-08-30T04:22:21;15.00;99.90
25250;DHT22;13201;51.148;13.738;2023-08-30T04:24:47;15.20;99.90
25250;DHT22;13201;51.148;13.738;2023-08-30T04:27:12;15.20;99.90
25250;DHT22;13201;51.148;13.738;2023-08-30T04:29:38;15.10;99.90
25250;DHT22;13201;51.148;13.738;2023-08-30T04:32:03;15.20;99.90
25250;DHT22;13201;51.148;13.738;2023-08-30T04:34:29;15.20;99.90
25250;DHT22;13201;51.148;13.738;2023-08-30T04:36:55;15.30;99.90
25250;DHT22;13201;51.148;13.738;2023-08-30T04:39:21;15.30;99.90
25250;DHT22;13201;51.148;13.738;2023-08-30T04:41:47;15.20;99.90
25250;DHT22;13201;51.148;13.738;2023-08-30T04:44:12;15.40;99.90
25250;DHT22;13201;51.148;13.738;2023-08-30T04:46:38;15.30;99.90
25250;DHT22;13201;51.148;13.738;2023-08-30T04:49:03;15.30;99.90
25250;DHT22;13201;51.148;13.738;2023-08-30T04:51:29;15.30;99.90
25250;DHT22;13201;51.148;13.738;2023-08-30T04:53:54;15.30;99.90
25250;DHT22;13201;51.148;13.738;2023-08-30T04:56:20;15.40;99.90
25250;DHT22;13201;51.148;13.738;2023-08-30T04:58:45;15.40;99.90
25250;DHT22;13201;51.148;13.738;2023-08-30T05:01:11;15.50;99.90
25250;DHT22;13201;51.148;13.738;2023-08-30T05:03:39;15.50;99.90
25250;DHT22;13201;51.148;13.738;2023-08-30T05:06:04;15.60;99.90
25250;DHT22;13201;51.148;13.738;2023-08-30T05:08:30;15.60;99.90
25250;DHT22;13201;51.148;13.738;2023-08-30T05:10:55;15.50;99.90
25250;DHT22;13201;51.148;13.738;2023-08-30T05:13:21;15.50;99.90
25250;DHT22;13201;51.148;13.738;2023-08-30T05:15:46;15.60;99.90
25250;DHT22;13201;51.148;13.738;2023-08-30T05:18:12;15.70;99.90
25250;DHT22;13201;51.148;13.738;2023-08-30T05:20:37;15.70;99.90
25250;DHT22;13201;51.148;13.738;2023-08-30T05:23:03;15.80;99.90
25250;DHT22;13201;51.148;13.738;2023-08-30T05:25:29;15.80;99.90
25250;DHT22;13201;51.148;13.738;2023-08-30T05:27:54;15.80;99.90
25250;DHT22;13201;51.148;13.738;2023-08-30T05:30:20;15.70;99.90
25250;DHT22;13201;51.148;13.738;2023-08-30T05:32:45;15.60;99.90
25250;DHT22;13201;51.148;13.738;2023-08-30T05:35:11;15.70;99.90
25250;DHT22;13201;51.148;13.738;2023-08-30T05:37:36;15.70;99.90
25250;DHT22;13201;51.148;13.738;2023-08-30T05:40:02;15.70;99.90
25250;DHT22;13201;51.148;13.738;2023-08-30T05:42:28;15.70;99.90
25250;DHT22;13201;51.148;13.738;2023-08-30T05:44:54;15.80;99.90
25250;DHT22;13201;51.148;13.738;2023-08-30T05:47:20;15.80;99.90
25250;DHT22;13201;51.148;13.738;2023-08-30T05:49:45;15.90;99.90
25250;DHT22;13201;51.148;13.738;2023-08-30T05:52:11;15.90;99.90
25250;DHT22;13201;51.148;13.738;2023-08-30T05:54:36;15.70;99.90
25250;DHT22;13201;51.148;13.738;2023-08-30T05:57:02;15.80;99.90
25250;DHT22;13201;51.148;13.738;2023-08-30T05:59:28;15.90;99.90
25250;DHT22;13201;51.148;13.738;2023-08-30T06:01:54;15.90;99.90
25250;DHT22;13201;51.148;13.738;2023-08-30T06:04:19;15.90;99.90
25250;DHT22;13201;51.148;13.738;2023-08-30T06:06:45;16.10;99.90
25250;DHT22;13201;51.148;13.738;2023-08-30T06:09:11;16.20;99.90
25250;DHT22;13201;51.148;13.738;2023-08-30T06:11:38;16.20;99.90
25250;DHT22;13201;51.148;13.738;2023-08-30T06:14:04;16.20;99.90
25250;DHT22;13201;51.148;13.738;2023-08-30T06:16:30;16.10;99.90
25250;DHT22;13201;51.148;13.738;2023-08-30T06:18:55;16.00;99.90
25250;DHT22;13201;51.148;13.738;2023-08-30T06:21:21;16.10;99.90
25250;DHT22;13201;51.148;13.738;2023-08-30T06:23:46;16.10;99.90
25250;DHT22;13201;51.148;13.738;2023-08-30T06:26:12;16.10;99.90
25250;DHT22;13201;51.148;13.738;2023-08-30T06:28:37;16.20;99.90
25250;DHT22;13201;51.148;13.738;2023-08-30T06:31:03;16.10;99.90
25250;DHT22;13201;51.148;13.738;2023-08-30T06:33:28;16.00;99.90
25250;DHT22;13201;51.148;13.738;2023-08-30T06:35:54;16.10;99.90
25250;DHT22;13201;51.148;13.738;2023-08-30T06:38:21;16.10;99.90
25250;DHT22;13201;51.148;13.738;2023-08-30T06:40:47;16.20;99.90
25250;DHT22;13201;51.148;13.738;2023-08-30T06:43:12;16.30;99.90
25250;DHT22;13201;51.148;13.738;2023-08-30T06:45:38;16.40;99.90
25250;DHT22;13201;51.148;13.738;2023-08-30T06:48:07;16.30;99.90
25250;DHT22;13201;51.148;13.738;2023-08-30T06:50:33;16.40;99.90
25250;DHT22;13201;51.148;13.738;2023-08-30T06:52:58;16.40;99.90
25250;DHT22;13201;51.148;13.738;2023-08-30T06:55:24;16.20;99.90
25250;DHT22;13201;51.148;13.738;2023-08-30T06:57:49;16.30;99.90
25250;DHT22;13201;51.148;13.738;2023-08-30T07:00:15;16.30;99.90
25250;DHT22;13201;51.148;13.738;2023-08-30T07:02:41;16.40;99.90
25250;DHT22;13201;51.148;13.738;2023-08-30T07:05:10;16.60;99.90
25250;DHT22;13201;51.148;13.738;2023-08-30T07:07:35;16.70;99.90
25250;DHT22;13201;51.148;13.738;2023-08-30T07:10:01;16.70;99.90
25250;DHT22;13201;51.148;13.738;2023-08-30T07:12:28;16.70;99.90
25250;DHT22;13201;51.148;13.738;2023-08-30T07:14:53;16.90;99.90
25250;DHT22;13201;51.148;13.738;2023-08-30T07:17:19;17.00;99.90
25250;DHT22;13201;51.148;13.738;2023-08-30T07:19:45;17.00;99.90
25250;DHT22;13201;51.148;13.738;2023-08-30T07:22:10;17.10;99.90
25250;DHT22;13201;51.148;13.738;2023-08-30T07:24:36;17.20;99.90
25250;DHT22;13201;51.148;13.738;2023-08-30T07:27:02;17.30;99.90
25250;DHT22;13201;51.148;13.738;2023-08-30T07:29:28;17.20;99.90
25250;DHT22;13201;51.148;13.738;2023-08-30T07:31:53;17.30;99.90
25250;DHT22;13201;51.148;13.738;2023-08-30T07:34:20;17.40;99.90
25250;DHT22;13201;51.148;13.738;2023-08-30T07:36:45;17.50;99.90
25250;DHT22;13201;51.148;13.738;2023-08-30T07:39:11;17.60;99.90
25250;DHT22;13201;51.148;13.738;2023-08-30T07:41:36;17.60;99.90
25250;DHT22;13201;51.148;13.738;2023-08-30T07:44:02;17.40;99.90
25250;DHT22;13201;51.148;13.738;2023-08-30T07:46:28;17.20;99.90
25250;DHT22;13201;51.148;13.738;2023-08-30T07:48:54;17.40;99.90
25250;DHT22;13201;51.148;13.738;2023-08-30T07:51:20;17.50;99.90
25250;DHT22;13201;51.148;13.738;2023-08-30T07:53:46;17.50;99.90
25250;DHT22;13201;51.148;13.738;2023-08-30T07:56:11;17.60;99.90
25250;DHT22;13201;51.148;13.738;2023-08-30T07:58:37;17.70;99.90
25250;DHT22;13201;51.148;13.738;2023-08-30T08:01:02;17.50;99.90
25250;DHT22;13201;51.148;13.738;2023-08-30T08:03:28;17.40;99.90
25250;DHT22;13201;51.148;13.738;2023-08-30T08:05:54;17.50;99.90
25250;DHT22;13201;51.148;13.738;2023-08-30T08:08:19;17.50;99.90
25250;DHT22;13201;51.148;13.738;2023-08-30T08:10:45;17.50;99.90
25250;DHT22;13201;51.148;13.738;2023-08-30T08:13:10;17.60;99.90
25250;DHT22;13201;51.148;13.738;2023-08-30T08:15:38;17.60;99.90
25250;DHT22;13201;51.148;13.738;2023-08-30T08:18:03;17.70;99.90
25250;DHT22;13201;51.148;13.738;2023-08-30T08:20:29;17.90;99.90
25250;DHT22;13201;51.148;13.738;2023-08-30T08:22:55;17.90;99.90
25250;DHT22;13201;51.148;13.738;2023-08-30T08:25:21;18.00;99.90
25250;DHT22;13201;51.148;13.738;2023-08-30T08:27:49;18.10;99.90
25250;DHT22;13201;51.148;13.738;2023-08-30T08:30:14;17.80;99.90
25250;DHT22;13201;51.148;13.738;2023-08-30T08:32:40;18.10;99.90
25250;DHT22;13201;51.148;13.738;2023-08-30T08:35:05;18.20;99.90
25250;DHT22;13201;51.148;13.738;2023-08-30T08:37:31;18.10;99.90
25250;DHT22;13201;51.148;13.738;2023-08-30T08:39:57;18.30;99.90
25250;DHT22;13201;51.148;13.738;2023-08-30T08:42:22;18.40;99.90
25250;DHT22;13201;51.148;13.738;2023-08-30T08:44:50;18.60;99.90
25250;DHT22;13201;51.148;13.738;2023-08-30T08:47:19;18.60;99.90
25250;DHT22;13201;51.148;13.738;2023-08-30T08:49:45;18.50;99.90
25250;DHT22;13201;51.148;13.738;2023-08-30T08:52:11;18.60;99.90
25250;DHT22;13201;51.148;13.738;2023-08-30T08:54:38;18.60;99.90
25250;DHT22;13201;51.148;13.738;2023-08-30T08:57:05;18.60;99.90
25250;DHT22;13201;51.148;13.738;2023-08-30T08:59:31;18.70;99.90
25250;DHT22;13201;51.148;13.738;2023-08-30T09:01:56;18.70;99.90
25250;DHT22;13201;51.148;13.738;2023-08-30T09:04:22;18.50;99.90
25250;DHT22;13201;51.148;13.738;2023-08-30T09:06:49;18.40;99.90
25250;DHT22;13201;51.148;13.738;2023-08-30T09:09:14;18.60;99.90
25250;DHT22;13201;51.148;13.738;2023-08-30T09:11:40;18.40;99.90
25250;DHT22;13201;51.148;13.738;2023-08-30T09:14:06;18.50;99.90
25250;DHT22;13201;51.148;13.738;2023-08-30T09:16:31;18.70;99.90
25250;DHT22;13201;51.148;13.738;2023-08-30T09:18:57;18.70;99.90
25250;DHT22;13201;51.148;13.738;2023-08-30T09:21:23;18.80;99.90
25250;DHT22;13201;51.148;13.738;2023-08-30T09:24:10;18.80;99.90
25250;DHT22;13201;51.148;13.738;2023-08-30T09:26:35;19.00;99.90
25250;DHT22;13201;51.148;13.738;2023-08-30T09:29:03;19.10;99.90
25250;DHT22;13201;51.148;13.738;2023-08-30T09:31:35;19.40;99.90
25250;DHT22;13201;51.148;13.738;2023-08-30T09:34:01;19.50;99.90
25250;DHT22;13201;51.148;13.738;2023-08-30T09:36:37;19.60;99.90
25250;DHT22;13201;51.148;13.738;2023-08-30T09:39:04;19.50;99.90
25250;DHT22;13201;51.148;13.738;2023-08-30T09:41:30;19.80;99.90
25250;DHT22;13201;51.148;13.738;2023-08-30T09:43:56;20.10;99.90
25250;DHT22;13201;51.148;13.738;2023-08-30T09:46:22;20.10;99.90
25250;DHT22;13201;51.148;13.738;2023-08-30T09:48:48;20.00;99.90
25250;DHT22;13201;51.148;13.738;2023-08-30T09:51:14;19.80;99.90
25250;DHT22;13201;51.148;13.738;2023-08-30T09:53:41;19.90;99.90
25250;DHT22;13201;51.148;13.738;2023-08-30T09:56:10;20.10;99.90
25250;DHT22;13201;51.148;13.738;2023-08-30T09:58:37;20.10;99.90
25250;DHT22;13201;51.148;13.738;2023-08-30T10:01:03;20.30;99.90
25250;DHT22;13201;51.148;13.738;2023-08-30T10:03:30;20.30;99.90
25250;DHT22;13201;51.148;13.738;2023-08-30T10:05:56;20.40;99.90
25250;DHT22;13201;51.148;13.738;2023-08-30T10:08:21;20.30;99.90
25250;DHT22;13201;51.148;13.738;2023-08-30T10:10:49;20.40;99.90
25250;DHT22;13201;51.148;13.738;2023-08-30T10:13:15;20.50;99.90
25250;DHT22;13201;51.148;13.738;2023-08-30T10:15:43;20.40;99.90
25250;DHT22;13201;51.148;13.738;2023-08-30T10:18:10;20.30;99.90
25250;DHT22;13201;51.148;13.738;2023-08-30T10:20:36;20.60;99.90
25250;DHT22;13201;51.148;13.738;2023-08-30T10:23:03;20.60;99.90
25250;DHT22;13201;51.148;13.738;2023-08-30T10:25:29;20.80;99.90
25250;DHT22;13201;51.148;13.738;2023-08-30T10:27:57;20.80;99.90
25250;DHT22;13201;51.148;13.738;2023-08-30T10:30:23;21.00;99.90
25250;DHT22;13201;51.148;13.738;2023-08-30T10:32:48;20.70;99.90
25250;DHT22;13201;51.148;13.738;2023-08-30T10:35:15;20.70;99.90
25250;DHT22;13201;51.148;13.738;2023-08-30T10:37:41;20.70;99.90
25250;DHT22;13201;51.148;13.738;2023-08-30T10:40:07;20.80;99.90
25250;DHT22;13201;51.148;13.738;2023-08-30T10:42:32;20.90;99.90
25250;DHT22;13201;51.148;13.738;2023-08-30T10:44:59;20.90;99.90
25250;DHT22;13201;51.148;13.738;2023-08-30T10:47:25;20.90;99.90
25250;DHT22;13201;51.148;13.738;2023-08-30T10:49:55;21.30;99.90
25250;DHT22;13201;51.148;13.738;2023-08-30T10:52:21;21.30;99.90
25250;DHT22;13201;51.148;13.738;2023-08-30T10:54:46;21.30;99.90
25250;DHT22;13201;51.148;13.738;2023-08-30T10:57:15;21.40;99.90
25250;DHT22;13201;51.148;13.738;2023-08-30T11:02:29;21.20;99.90
25250;DHT22;13201;51.148;13.738;2023-08-30T11:04:55;21.30;99.90
25250;DHT22;13201;51.148;13.738;2023-08-30T11:07:24;21.20;99.90
25250;DHT22;13201;51.148;13.738;2023-08-30T11:09:50;20.90;99.90
25250;DHT22;13201;51.148;13.738;2023-08-30T11:12:17;21.10;99.90
25250;DHT22;13201;51.148;13.738;2023-08-30T11:14:43;21.30;99.90
25250;DHT22;13201;51.148;13.738;2023-08-30T11:17:11;21.00;99.90
25250;DHT22;13201;51.148;13.738;2023-08-30T11:19:37;21.40;99.90
25250;DHT22;13201;51.148;13.738;2023-08-30T11:22:03;21.70;99.90
25250;DHT22;13201;51.148;13.738;2023-08-30T11:24:28;22.00;99.90
25250;DHT22;13201;51.148;13.738;2023-08-30T11:26:54;21.90;99.90
25250;DHT22;13201;51.148;13.738;2023-08-30T11:29:20;22.30;99.90
25250;DHT22;13201;51.148;13.738;2023-08-30T11:31:45;22.50;99.90
25250;DHT22;13201;51.148;13.738;2023-08-30T11:34:12;22.80;99.90
25250;DHT22;13201;51.148;13.738;2023-08-30T11:36:37;22.70;99.90
25250;DHT22;13201;51.148;13.738;2023-08-30T11:39:03;23.00;99.90
25250;DHT22;13201;51.148;13.738;2023-08-30T11:41:29;22.80;99.90
25250;DHT22;13201;51.148;13.738;2023-08-30T11:43:56;22.90;99.90
25250;DHT22;13201;51.148;13.738;2023-08-30T11:46:23;23.20;99.90
25250;DHT22;13201;51.148;13.738;2023-08-30T11:48:49;23.30;99.90
25250;DHT22;13201;51.148;13.738;2023-08-30T11:51:16;23.00;99.90
25250;DHT22;13201;51.148;13.738;2023-08-30T11:53:41;22.80;99.90
25250;DHT22;13201;51.148;13.738;2023-08-30T11:56:07;23.10;99.90
25250;DHT22;13201;51.148;13.738;2023-08-30T11:58:34;23.30;99.90
25250;DHT22;13201;51.148;13.738;2023-08-30T12:01:00;23.50;99.90
25250;DHT22;13201;51.148;13.738;2023-08-30T12:03:30;23.70;99.90
25250;DHT22;13201;51.148;13.738;2023-08-30T12:05:55;23.50;99.90
25250;DHT22;13201;51.148;13.738;2023-08-30T12:08:30;23.50;99.90
25250;DHT22;13201;51.148;13.738;2023-08-30T12:10:57;23.90;99.90
25250;DHT22;13201;51.148;13.738;2023-08-30T12:13:23;24.40;99.90
25250;DHT22;13201;51.148;13.738;2023-08-30T12:15:49;24.30;99.90
25250;DHT22;13201;51.148;13.738;2023-08-30T12:18:15;24.20;99.90
25250;DHT22;13201;51.148;13.738;2023-08-30T12:20:50;24.40;99.90
25250;DHT22;13201;51.148;13.738;2023-08-30T12:23:20;24.50;99.90
25250;DHT22;13201;51.148;13.738;2023-08-30T12:25:56;24.70;99.90
25250;DHT22;13201;51.148;13.738;2023-08-30T12:28:21;24.80;99.50
25250;DHT22;13201;51.148;13.738;2023-08-30T12:30:47;24.70;98.80
25250;DHT22;13201;51.148;13.738;2023-08-30T12:33:15;24.90;99.90
25250;DHT22;13201;51.148;13.738;2023-08-30T12:35:41;24.40;99.90
25250;DHT22;13201;51.148;13.738;2023-08-30T12:38:06;24.30;99.90
25250;DHT22;13201;51.148;13.738;2023-08-30T12:40:32;24.00;99.90
25250;DHT22;13201;51.148;13.738;2023-08-30T12:42:58;23.70;99.90
25250;DHT22;13201;51.148;13.738;2023-08-30T12:45:23;23.60;99.90
25250;DHT22;13201;51.148;13.738;2023-08-30T12:47:49;23.40;99.90
25250;DHT22;13201;51.148;13.738;2023-08-30T12:50:14;23.20;99.90
25250;DHT22;13201;51.148;13.738;2023-08-30T12:52:40;23.10;99.90
25250;DHT22;13201;51.148;13.738;2023-08-30T12:55:05;23.00;99.90
25250;DHT22;13201;51.148;13.738;2023-08-30T12:57:31;22.80;99.90
25250;DHT22;13201;51.148;13.738;2023-08-30T12:59:56;22.60;99.90
25250;DHT22;13201;51.148;13.738;2023-08-30T13:02:22;22.20;99.90
25250;DHT22;13201;51.148;13.738;2023-08-30T13:04:47;22.10;99.90
25250;DHT22;13201;51.148;13.738;2023-08-30T13:07:13;22.30;99.90
25250;DHT22;13201;51.148;13.738;2023-08-30T13:09:38;22.20;99.90
25250;DHT22;13201;51.148;13.738;2023-08-30T13:12:04;22.40;99.90
25250;DHT22;13201;51.148;13.738;2023-08-30T13:14:29;22.30;99.90
25250;DHT22;13201;51.148;13.738;2023-08-30T13:16:55;22.40;99.90
25250;DHT22;13201;51.148;13.738;2023-08-30T13:19:20;22.40;99.90
25250;DHT22;13201;51.148;13.738;2023-08-30T13:21:46;22.50;99.90
25250;DHT22;13201;51.148;13.738;2023-08-30T13:24:12;23.00;99.90
25250;DHT22;13201;51.148;13.738;2023-08-30T13:26:37;23.90;99.90
25250;DHT22;13201;51.148;13.738;2023-08-30T13:29:03;23.90;99.90
25250;DHT22;13201;51.148;13.738;2023-08-30T13:31:28;23.90;99.60
25250;DHT22;13201;51.148;13.738;2023-08-30T13:33:54;24.40;98.90
25250;DHT22;13201;51.148;13.738;2023-08-30T13:36:19;25.20;99.40
25250;DHT22;13201;51.148;13.738;2023-08-30T13:38:45;25.30;98.60
25250;DHT22;13201;51.148;13.738;2023-08-30T13:41:11;25.90;98.90
25250;DHT22;13201;51.148;13.738;2023-08-30T13:43:36;25.90;97.50
25250;DHT22;13201;51.148;13.738;2023-08-30T13:46:02;26.10;97.90
25250;DHT22;13201;51.148;13.738;2023-08-30T13:48:27;26.20;96.80
25250;DHT22;13201;51.148;13.738;2023-08-30T13:50:53;26.30;97.40
25250;DHT22;13201;51.148;13.738;2023-08-30T13:53:18;26.40;96.10
25250;DHT22;13201;51.148;13.738;2023-08-30T13:55:45;26.50;94.00
25250;DHT22;13201;51.148;13.738;2023-08-30T13:58:11;26.70;95.10
25250;DHT22;13201;51.148;13.738;2023-08-30T14:00:37;27.10;93.90
25250;DHT22;13201;51.148;13.738;2023-08-30T14:03:02;27.00;93.80
25250;DHT22;13201;51.148;13.738;2023-08-30T14:05:28;26.70;94.00
25250;DHT22;13201;51.148;13.738;2023-08-30T14:07:53;26.30;93.60
25250;DHT22;13201;51.148;13.738;2023-08-30T14:10:19;27.20;93.00
25250;DHT22;13201;51.148;13.738;2023-08-30T14:12:44;26.80;92.40
25250;DHT22;13201;51.148;13.738;2023-08-30T14:15:10;27.00;92.80
25250;DHT22;13201;51.148;13.738;2023-08-30T14:17:36;27.60;93.70
25250;DHT22;13201;51.148;13.738;2023-08-30T14:20:02;28.00;91.70
25250;DHT22;13201;51.148;13.738;2023-08-30T14:22:28;27.50;91.50
25250;DHT22;13201;51.148;13.738;2023-08-30T14:24:53;27.50;92.00
25250;DHT22;13201;51.148;13.738;2023-08-30T14:27:19;28.30;91.70
25250;DHT22;13201;51.148;13.738;2023-08-30T14:29:44;28.30;91.00
25250;DHT22;13201;51.148;13.738;2023-08-30T14:32:10;27.10;91.00
25250;DHT22;13201;51.148;13.738;2023-08-30T14:34:35;26.30;91.20
25250;DHT22;13201;51.148;13.738;2023-08-30T14:37:01;26.10;92.50
25250;DHT22;13201;51.148;13.738;2023-08-30T14:39:27;26.60;92.80
25250;DHT22;13201;51.148;13.738;2023-08-30T14:41:52;27.20;91.30
25250;DHT22;13201;51.148;13.738;2023-08-30T14:44:18;27.60;92.10
25250;DHT22;13201;51.148;13.738;2023-08-30T14:46:45;28.00;91.00
25250;DHT22;13201;51.148;13.738;2023-08-30T14:49:10;26.50;91.80
25250;DHT22;13201;51.148;13.738;2023-08-30T14:51:36;26.70;91.80
25250;DHT22;13201;51.148;13.738;2023-08-30T14:54:02;27.70;92.90
25250;DHT22;13201;51.148;13.738;2023-08-30T14:56:27;27.10;92.50
25250;DHT22;13201;51.148;13.738;2023-08-30T14:58:53;26.20;92.60
25250;DHT22;13201;51.148;13.738;2023-08-30T15:01:18;26.00;92.70
25250;DHT22;13201;51.148;13.738;2023-08-30T15:03:44;25.60;92.90
25250;DHT22;13201;51.148;13.738;2023-08-30T15:06:10;25.80;93.10
25250;DHT22;13201;51.148;13.738;2023-08-30T15:08:35;26.60;93.00
25250;DHT22;13201;51.148;13.738;2023-08-30T15:11:01;27.00;93.00
25250;DHT22;13201;51.148;13.738;2023-08-30T15:13:28;27.40;91.60
25250;DHT22;13201;51.148;13.738;2023-08-30T15:15:53;27.00;92.10
25250;DHT22;13201;51.148;13.738;2023-08-30T15:18:19;26.60;91.70
25250;DHT22;13201;51.148;13.738;2023-08-30T15:20:45;26.20;91.70
25250;DHT22;13201;51.148;13.738;2023-08-30T15:23:12;26.10;92.50
25250;DHT22;13201;51.148;13.738;2023-08-30T15:25:43;25.90;93.40
25250;DHT22;13201;51.148;13.738;2023-08-30T15:28:08;25.60;93.00
25250;DHT22;13201;51.148;13.738;2023-08-30T15:30:34;25.60;93.70
25250;DHT22;13201;51.148;13.738;2023-08-30T15:32:59;25.50;94.30
25250;DHT22;13201;51.148;13.738;2023-08-30T15:35:25;25.40;94.50
25250;DHT22;13201;51.148;13.738;2023-08-30T15:37:50;25.10;94.40